createdAt,value
2023-05-18T00:01:34.750Z,55.95
2023-05-18T00:04:06.753Z,55.94
2023-05-18T00:06:37.153Z,56.04
2023-05-18T00:09:08.916Z,55.95
2023-05-18T00:11:43.482Z,55.99
2023-05-18T00:14:13.976Z,55.91
2023-05-18T00:16:44.350Z,55.82
2023-05-18T00:19:17.845Z,55.95
2023-05-18T00:21:49.332Z,55.93
2023-05-18T00:24:20.824Z,55.86
2023-05-18T00:26:52.249Z,55.84
2023-05-18T00:29:23.142Z,55.95
2023-05-18T00:31:53.701Z,55.88
2023-05-18T00:34:25.279Z,56.14
2023-05-18T00:36:55.555Z,56.12
2023-05-18T00:39:25.909Z,56.15
2023-05-18T00:41:56.240Z,55.90
2023-05-18T00:44:27.979Z,55.88
2023-05-18T00:46:58.347Z,55.93
2023-05-18T00:49:29.801Z,55.96
2023-05-18T00:52:01.040Z,56.00
2023-05-18T00:54:31.612Z,56.30
2023-05-18T00:57:05.982Z,56.13
2023-05-18T00:59:37.477Z,56.13
2023-05-18T01:02:09.405Z,56.34
2023-05-18T01:04:43.480Z,56.50
2023-05-18T01:07:15.343Z,56.38
2023-05-18T01:09:46.142Z,56.41
2023-05-18T01:12:27.458Z,56.37
2023-05-18T01:15:11.329Z,56.13
2023-05-18T01:17:53.725Z,56.20
2023-05-18T01:20:52.327Z,56.04
2023-05-18T01:23:44.047Z,56.12
2023-05-18T01:26:18.510Z,56.33
2023-05-18T01:28:49.526Z,56.03
2023-05-18T01:31:20.477Z,56.28
2023-05-18T01:33:50.804Z,56.11
2023-05-18T01:36:21.154Z,56.25
2023-05-18T01:38:53.043Z,56.39
2023-05-18T01:41:32.394Z,56.13
2023-05-18T01:44:26.407Z,55.74
2023-05-18T01:47:13.537Z,56.10
2023-05-18T01:50:02.012Z,56.20
2023-05-18T01:52:41.881Z,56.34
2023-05-18T01:55:13.655Z,55.93
2023-05-18T01:57:48.707Z,56.04
2023-05-18T02:00:21.258Z,56.05
2023-05-18T02:02:51.986Z,55.98
2023-05-18T02:05:22.737Z,55.83
2023-05-18T02:07:52.928Z,55.67
2023-05-18T02:10:23.738Z,55.71
2023-05-18T02:12:55.784Z,55.77
2023-05-18T02:15:26.320Z,55.69
2023-05-18T02:18:00.594Z,55.93
2023-05-18T02:20:35.159Z,55.86
2023-05-18T02:23:07.804Z,56.05
2023-05-18T02:25:39.571Z,55.99
2023-05-18T02:28:09.944Z,55.97
2023-05-18T02:30:42.436Z,55.86
2023-05-18T02:33:13.598Z,56.04
2023-05-18T02:35:44.248Z,56.09
2023-05-18T02:38:14.977Z,56.24
2023-05-18T02:40:45.692Z,56.25
2023-05-18T02:43:18.007Z,56.19
2023-05-18T02:45:51.074Z,56.18
2023-05-18T02:48:22.115Z,56.04
2023-05-18T02:50:52.653Z,55.97
2023-05-18T02:53:24.230Z,56.07
2023-05-18T02:56:05.659Z,55.60
2023-05-18T02:58:47.374Z,55.77
2023-05-18T03:01:29.131Z,55.88
2023-05-18T03:04:02.775Z,55.74
2023-05-18T03:06:33.893Z,55.96
2023-05-18T03:09:04.382Z,55.56
2023-05-18T03:11:43.003Z,55.57
2023-05-18T03:14:13.725Z,55.44
2023-05-18T03:16:44.308Z,55.49
2023-05-18T03:19:18.639Z,55.28
2023-05-18T03:21:53.423Z,55.29
2023-05-18T03:24:24.402Z,55.44
2023-05-18T03:26:57.585Z,55.41
2023-05-18T03:29:31.193Z,55.41
2023-05-18T03:32:05.262Z,55.24
2023-05-18T03:34:35.931Z,54.96
2023-05-18T03:37:06.874Z,55.19
2023-05-18T03:39:37.426Z,54.58
2023-05-18T03:42:08.132Z,54.46
2023-05-18T03:44:38.708Z,54.62
2023-05-18T03:47:11.791Z,54.12
2023-05-18T03:49:42.277Z,54.18
2023-05-18T03:52:12.722Z,53.73
2023-05-18T03:54:45.223Z,53.71
2023-05-18T03:57:15.576Z,53.62
2023-05-18T03:59:47.799Z,53.57
2023-05-18T04:02:19.310Z,53.31
2023-05-18T04:04:50.796Z,53.33
2023-05-18T04:07:21.112Z,53.47
2023-05-18T04:09:52.142Z,53.57
2023-05-18T04:12:22.997Z,53.41
2023-05-18T04:14:53.305Z,53.54
2023-05-18T04:17:26.721Z,53.27
2023-05-18T04:19:57.100Z,53.33
2023-05-18T04:22:28.111Z,53.14
2023-05-18T04:24:59.761Z,53.21
2023-05-18T04:27:31.957Z,53.20
2023-05-18T04:30:02.268Z,53.32
2023-05-18T04:32:38.646Z,53.24
2023-05-18T04:35:10.412Z,53.34
2023-05-18T04:37:43.794Z,53.10
2023-05-18T04:40:21.757Z,53.14
2023-05-18T04:42:52.964Z,53.30
2023-05-18T04:45:29.631Z,53.28
2023-05-18T04:48:02.531Z,52.99
2023-05-18T04:50:32.878Z,53.03
2023-05-18T04:53:04.951Z,52.88
2023-05-18T04:55:37.681Z,52.86
2023-05-18T04:58:12.833Z,53.03
2023-05-18T05:00:43.435Z,52.81
2023-05-18T05:03:14.268Z,52.92
2023-05-18T05:05:45.489Z,52.86
2023-05-18T05:08:16.209Z,52.60
2023-05-18T05:10:46.526Z,52.66
2023-05-18T05:13:17.972Z,52.38
2023-05-18T05:15:48.486Z,52.39
2023-05-18T05:18:18.906Z,52.42
2023-05-18T05:20:49.295Z,52.29
2023-05-18T05:23:19.949Z,52.28
2023-05-18T05:25:50.754Z,52.23
2023-05-18T05:28:21.207Z,51.98
2023-05-18T05:30:51.596Z,51.89
2023-05-18T05:33:22.007Z,51.66
2023-05-18T05:35:52.832Z,51.63
2023-05-18T05:38:23.671Z,51.32
2023-05-18T05:40:54.040Z,51.47
2023-05-18T05:43:24.325Z,51.61
2023-05-18T05:45:54.684Z,51.31
2023-05-18T05:48:25.680Z,51.13
2023-05-18T05:50:56.113Z,51.12
2023-05-18T05:53:27.430Z,50.97
2023-05-18T05:55:58.042Z,50.87
2023-05-18T05:58:28.486Z,50.87
2023-05-18T06:01:03.778Z,50.89
2023-05-18T06:03:41.883Z,51.06
2023-05-18T06:06:14.170Z,50.80
2023-05-18T06:08:47.823Z,51.04
2023-05-18T06:11:23.869Z,50.86
2023-05-18T06:13:56.533Z,50.70
2023-05-18T06:16:30.331Z,51.00
2023-05-18T06:19:03.411Z,50.78
2023-05-18T06:21:36.453Z,51.02
2023-05-18T06:24:09.833Z,50.98
2023-05-18T06:27:21.326Z,50.85
2023-05-18T06:30:27.048Z,51.03
2023-05-18T06:33:21.325Z,51.11
2023-05-18T06:35:53.760Z,50.93
2023-05-18T06:38:27.119Z,50.82
2023-05-18T06:40:59.476Z,50.70
2023-05-18T06:43:53.715Z,50.54
2023-05-18T06:46:35.877Z,50.81
2023-05-18T06:49:17.965Z,50.85
2023-05-18T06:51:50.357Z,50.58
2023-05-18T06:54:22.562Z,50.56
2023-05-18T06:56:54.733Z,50.81
2023-05-18T06:59:27.660Z,50.48
2023-05-18T07:02:01.855Z,50.40
2023-05-18T07:04:34.030Z,50.43
2023-05-18T07:07:04.351Z,50.14
2023-05-18T07:09:34.729Z,50.19
2023-05-18T07:12:05.187Z,50.15
2023-05-18T07:14:35.869Z,49.82
2023-05-18T07:17:07.054Z,49.88
2023-05-18T07:19:37.833Z,49.23
2023-05-18T07:22:10.660Z,49.15
2023-05-18T07:24:40.990Z,49.16
2023-05-18T07:27:11.380Z,48.85
2023-05-18T07:29:42.831Z,48.78
2023-05-18T07:32:13.409Z,48.88
2023-05-18T07:34:49.192Z,48.57
2023-05-18T07:37:19.586Z,48.41
2023-05-18T07:39:49.912Z,48.46
2023-05-18T07:42:20.188Z,48.61
2023-05-18T07:44:53.490Z,48.59
2023-05-18T07:47:24.038Z,48.76
2023-05-18T07:49:54.505Z,48.85
2023-05-18T07:52:24.877Z,48.65
2023-05-18T07:54:57.844Z,48.51
2023-05-18T07:57:29.634Z,48.71
2023-05-18T08:00:00.013Z,48.67
2023-05-18T08:02:32.832Z,48.58
2023-05-18T08:05:04.294Z,48.60
2023-05-18T08:07:35.931Z,48.43
2023-05-18T08:10:07.069Z,48.23
2023-05-18T08:12:38.374Z,48.27
2023-05-18T08:15:09.492Z,48.27
2023-05-18T08:17:39.827Z,48.42
2023-05-18T08:20:11.168Z,48.34
2023-05-18T08:22:41.170Z,48.42
2023-05-18T08:25:12.746Z,48.70
2023-05-18T08:28:10.706Z,48.33
2023-05-18T08:30:41.083Z,48.28
2023-05-18T08:33:11.730Z,48.46
2023-05-18T08:35:42.404Z,48.56
2023-05-18T08:38:12.742Z,48.24
2023-05-18T08:40:57.161Z,48.31
2023-05-18T08:43:35.629Z,48.38
2023-05-18T08:46:27.819Z,48.33
2023-05-18T08:48:59.947Z,48.40
2023-05-18T08:51:36.201Z,48.25
2023-05-18T08:54:10.221Z,48.34
2023-05-18T08:56:42.286Z,48.43
2023-05-18T08:59:14.295Z,48.53
2023-05-18T09:01:45.589Z,48.43
2023-05-18T09:04:16.496Z,48.44
2023-05-18T09:06:47.986Z,48.37
2023-05-18T09:09:18.714Z,48.57
2023-05-18T09:11:50.832Z,48.72
2023-05-18T09:14:21.756Z,48.88
2023-05-18T09:16:51.833Z,48.90
2023-05-18T09:19:22.792Z,49.03
2023-05-18T09:21:53.423Z,49.19
2023-05-18T09:24:24.987Z,49.14
2023-05-18T09:26:55.865Z,49.27
2023-05-18T09:29:26.720Z,49.33
2023-05-18T09:32:00.419Z,49.21
2023-05-18T09:34:43.374Z,49.13
2023-05-18T09:37:14.438Z,49.18
2023-05-18T09:39:45.778Z,49.03
2023-05-18T09:42:16.096Z,49.22
2023-05-18T09:44:48.594Z,49.14
2023-05-18T09:47:20.654Z,49.25
2023-05-18T09:49:51.278Z,49.30
2023-05-18T09:52:21.865Z,49.25
2023-05-18T09:55:07.038Z,49.26
2023-05-18T09:57:46.419Z,49.36
2023-05-18T10:00:24.863Z,49.37
2023-05-18T10:02:55.868Z,49.29
2023-05-18T10:05:31.359Z,49.28
2023-05-18T10:08:03.491Z,49.30
2023-05-18T10:10:33.970Z,49.02
2023-05-18T10:13:04.594Z,49.11
2023-05-18T10:15:35.823Z,49.11
2023-05-18T10:18:08.914Z,49.00
2023-05-18T10:20:39.588Z,49.35
2023-05-18T10:23:10.745Z,49.12
2023-05-18T10:25:42.166Z,49.39
2023-05-18T10:28:14.227Z,49.45
2023-05-18T10:30:46.066Z,49.40
2023-05-18T10:33:28.494Z,49.27
2023-05-18T10:36:00.849Z,49.44
2023-05-18T10:38:31.858Z,49.63
2023-05-18T10:41:03.450Z,49.69
2023-05-18T10:43:36.168Z,49.76
2023-05-18T10:46:12.335Z,49.55
2023-05-18T10:48:43.384Z,49.79
2023-05-18T10:51:13.949Z,49.76
2023-05-18T10:53:46.998Z,49.90
2023-05-18T10:56:20.295Z,49.95
2023-05-18T10:58:51.142Z,49.89
2023-05-18T11:01:21.984Z,49.97
2023-05-18T11:03:52.474Z,49.99
2023-05-18T11:06:26.980Z,49.92
2023-05-18T11:08:57.761Z,50.25
2023-05-18T11:11:32.352Z,50.15
2023-05-18T11:14:05.289Z,50.13
2023-05-18T11:16:38.365Z,50.26
2023-05-18T11:19:10.301Z,50.17
2023-05-18T11:21:43.762Z,50.15
2023-05-18T11:24:33.947Z,50.09
2023-05-18T11:27:10.937Z,49.93
2023-05-18T11:29:53.548Z,50.20
2023-05-18T11:32:32.780Z,50.36
2023-05-18T11:35:03.585Z,50.19
2023-05-18T11:37:43.725Z,50.30
2023-05-18T11:40:18.675Z,50.14
2023-05-18T11:43:01.613Z,50.29
2023-05-18T11:45:32.014Z,50.40
2023-05-18T11:48:06.034Z,50.37
2023-05-18T11:50:36.894Z,50.38
2023-05-18T11:53:07.392Z,50.55
2023-05-18T11:55:41.611Z,50.58
2023-05-18T11:58:13.042Z,50.66
2023-05-18T12:00:44.344Z,50.58
2023-05-18T12:03:15.751Z,50.56
2023-05-18T12:05:51.761Z,50.76
2023-05-18T12:08:23.189Z,50.80
2023-05-18T12:10:54.087Z,50.71
2023-05-18T12:13:26.323Z,50.61
2023-05-18T12:15:59.313Z,50.69
2023-05-18T12:18:32.396Z,50.79
2023-05-18T12:21:07.472Z,50.69
2023-05-18T12:23:43.743Z,50.63
2023-05-18T12:26:14.089Z,50.54
2023-05-18T12:28:44.552Z,50.78
2023-05-18T12:31:15.110Z,50.57
2023-05-18T12:33:45.991Z,51.16
2023-05-18T12:36:17.280Z,52.07
2023-05-18T12:38:52.501Z,53.43
2023-05-18T13:04:01.791Z,59.18
2023-05-18T13:06:32.671Z,59.30
2023-05-18T13:09:02.830Z,59.32
2023-05-18T13:11:34.300Z,59.73
2023-05-18T13:14:09.544Z,60.08
2023-05-18T13:16:47.973Z,59.88
2023-05-18T13:19:22.105Z,59.76
2023-05-18T13:21:59.370Z,59.70
2023-05-18T13:24:30.257Z,59.72
2023-05-18T13:27:00.595Z,59.83
2023-05-18T13:29:31.476Z,60.08
2023-05-18T13:32:01.875Z,60.00
2023-05-18T13:34:32.156Z,59.85
2023-05-18T13:37:03.343Z,59.78
2023-05-18T13:39:33.712Z,60.00
2023-05-18T13:42:05.451Z,60.04
2023-05-18T13:44:36.105Z,60.12
2023-05-18T13:47:06.595Z,60.39
2023-05-18T13:49:36.989Z,60.85
2023-05-18T13:52:07.898Z,60.89
2023-05-18T13:54:38.376Z,60.86
2023-05-18T13:57:10.365Z,60.54
2023-05-18T13:59:40.614Z,60.74
2023-05-18T14:02:10.935Z,60.67
2023-05-18T14:04:41.313Z,60.86
2023-05-18T14:07:12.204Z,60.89
2023-05-18T14:09:42.757Z,60.61
2023-05-18T14:12:13.833Z,60.54
2023-05-18T14:14:45.529Z,60.51
2023-05-18T14:17:16.176Z,60.68
2023-05-18T14:19:46.576Z,60.56
2023-05-18T14:22:18.911Z,60.67
2023-05-18T14:24:49.345Z,60.86
2023-05-18T14:27:19.709Z,61.04
2023-05-18T14:29:50.588Z,61.10
2023-05-18T14:32:23.639Z,61.05
2023-05-18T14:34:57.662Z,60.91
2023-05-18T14:37:28.478Z,61.00
2023-05-18T14:39:58.873Z,61.77
2023-05-18T14:42:29.333Z,61.93
2023-05-18T14:44:59.692Z,62.06
2023-05-18T14:47:30.110Z,61.97
2023-05-18T14:50:00.466Z,62.23
2023-05-18T14:52:31.033Z,62.13
2023-05-18T14:55:01.538Z,62.30
2023-05-18T14:57:32.013Z,62.23
2023-05-18T15:00:03.131Z,62.24
2023-05-18T15:02:33.352Z,62.27
2023-05-18T15:05:03.834Z,62.49
2023-05-18T15:07:34.068Z,62.52
2023-05-18T15:10:04.366Z,62.80
2023-05-18T15:12:34.613Z,62.86
2023-05-18T15:15:05.070Z,63.00
2023-05-18T15:17:35.367Z,63.01
2023-05-18T15:20:07.136Z,62.76
2023-05-18T15:22:38.333Z,63.14
2023-05-18T15:25:09.957Z,63.08
2023-05-18T15:27:41.656Z,63.63
2023-05-18T15:30:14.057Z,63.53
2023-05-18T15:32:47.465Z,63.06
2023-05-18T15:35:20.628Z,63.11
2023-05-18T15:37:52.622Z,63.15
2023-05-18T15:40:23.062Z,63.16
2023-05-18T15:42:53.441Z,63.42
2023-05-18T15:45:23.669Z,63.35
2023-05-18T15:47:54.048Z,63.24
2023-05-18T15:50:24.330Z,63.51
2023-05-18T15:52:55.197Z,64.03
2023-05-18T15:55:25.364Z,64.11
2023-05-18T15:57:55.685Z,64.28
2023-05-18T16:00:26.672Z,64.33
2023-05-18T16:02:57.152Z,63.86
2023-05-18T16:05:27.441Z,64.03
2023-05-18T16:07:57.765Z,64.41
2023-05-18T16:10:28.276Z,64.32
2023-05-18T16:13:02.850Z,64.24
2023-05-18T16:15:33.113Z,64.30
2023-05-18T16:18:03.684Z,64.09
2023-05-18T16:20:34.310Z,63.99
2023-05-18T16:23:04.737Z,64.01
2023-05-18T16:25:35.136Z,63.88
2023-05-18T16:28:05.910Z,64.03
2023-05-18T16:30:36.067Z,63.91
2023-05-18T16:33:06.636Z,63.56
2023-05-18T16:35:36.903Z,63.41
2023-05-18T16:38:07.231Z,63.41
2023-05-18T16:40:37.512Z,63.47
2023-05-18T16:43:07.960Z,63.14
2023-05-18T16:45:38.480Z,62.96
2023-05-18T16:48:09.358Z,63.09
2023-05-18T16:50:40.141Z,63.02
2023-05-18T16:53:10.274Z,62.95
2023-05-18T16:55:40.619Z,62.97
2023-05-18T16:58:11.106Z,63.01
2023-05-18T17:00:41.440Z,62.76
2023-05-18T17:03:11.812Z,62.64
2023-05-18T17:05:42.297Z,62.48
2023-05-18T17:08:13.584Z,62.49
2023-05-18T17:10:44.115Z,62.27
2023-05-18T17:13:14.454Z,62.23
2023-05-18T17:15:44.859Z,62.29
2023-05-18T17:18:15.311Z,62.07
2023-05-18T17:20:45.657Z,61.91
2023-05-18T17:23:19.889Z,61.76
2023-05-18T17:25:50.549Z,61.60
2023-05-18T17:28:23.111Z,61.09
2023-05-18T17:30:53.354Z,60.87
2023-05-18T17:33:23.660Z,60.74
2023-05-18T17:35:54.083Z,60.72
2023-05-18T17:38:25.057Z,60.67
2023-05-18T17:40:55.321Z,60.38
2023-05-18T17:43:25.664Z,60.05
2023-05-18T17:45:56.055Z,59.22
2023-05-18T17:48:26.353Z,58.68
2023-05-18T17:50:56.822Z,58.12
2023-05-18T17:53:27.106Z,58.32
2023-05-18T17:55:57.464Z,57.43
2023-05-18T17:58:27.772Z,57.69
2023-05-18T18:00:58.286Z,58.26
2023-05-18T18:03:28.969Z,58.16
2023-05-18T18:05:59.468Z,57.93
2023-05-18T18:08:32.117Z,58.10
2023-05-18T18:11:03.335Z,58.15
2023-05-18T18:13:33.390Z,58.33
2023-05-18T18:16:03.696Z,58.41
2023-05-18T18:18:35.093Z,58.06
2023-05-18T18:21:06.199Z,57.22
2023-05-18T18:23:36.425Z,57.88
2023-05-18T18:26:07.853Z,57.42
2023-05-18T18:28:38.748Z,57.62
2023-05-18T18:31:09.182Z,56.81
2023-05-18T18:33:39.370Z,57.09
2023-05-18T18:36:11.669Z,56.57
2023-05-18T18:38:42.091Z,56.69
2023-05-18T18:41:12.450Z,56.94
2023-05-18T18:43:42.807Z,56.91
2023-05-18T18:46:13.284Z,56.97
2023-05-18T18:48:44.941Z,57.10
2023-05-18T18:51:15.203Z,56.06
2023-05-18T18:53:45.811Z,56.16
2023-05-18T18:56:16.076Z,57.02
2023-05-18T18:58:46.405Z,56.76
2023-05-18T19:01:16.765Z,56.07
2023-05-18T19:03:47.134Z,55.47
2023-05-18T19:06:19.746Z,55.59
2023-05-18T19:08:50.030Z,56.01
2023-05-18T19:11:20.433Z,55.34
2023-05-18T19:13:51.201Z,55.81
2023-05-18T19:16:21.712Z,56.21
2023-05-18T19:18:52.114Z,55.52
2023-05-18T19:21:25.440Z,56.06
2023-05-18T19:23:56.047Z,55.91
2023-05-18T19:26:29.267Z,55.86
2023-05-18T19:29:00.107Z,54.85
2023-05-18T19:31:30.523Z,55.19
2023-05-18T19:34:03.969Z,55.16
2023-05-18T19:36:34.385Z,55.14
2023-05-18T19:39:04.562Z,54.96
2023-05-18T19:41:34.926Z,54.93
2023-05-18T19:44:05.609Z,55.15
2023-05-18T19:46:36.093Z,54.85
2023-05-18T19:49:09.071Z,54.68
2023-05-18T19:51:39.961Z,54.71
2023-05-18T19:54:10.102Z,54.74
2023-05-18T19:56:40.301Z,54.93
2023-05-18T19:59:10.658Z,55.06
2023-05-18T20:01:41.118Z,54.34
2023-05-18T20:04:11.597Z,54.71
2023-05-18T20:06:43.133Z,55.18
2023-05-18T20:09:13.490Z,54.30
2023-05-18T20:11:43.795Z,54.28
2023-05-18T20:14:14.180Z,54.93
2023-05-18T20:16:44.585Z,54.40
2023-05-18T20:19:19.754Z,54.36
2023-05-18T20:21:51.052Z,54.61
2023-05-18T20:24:21.394Z,54.27
2023-05-18T20:26:53.355Z,54.09
2023-05-18T20:29:23.675Z,54.27
2023-05-18T20:31:54.564Z,53.80
2023-05-18T20:34:24.855Z,53.94
2023-05-18T20:36:55.323Z,53.80
2023-05-18T20:39:28.192Z,53.83
2023-05-18T20:42:00.020Z,53.82
2023-05-18T20:44:31.106Z,53.99
2023-05-18T20:47:05.122Z,53.73
2023-05-18T20:49:35.469Z,53.64
2023-05-18T20:52:05.986Z,53.67
2023-05-18T20:54:36.253Z,53.67
2023-05-18T20:57:06.802Z,53.74
2023-05-18T20:59:37.079Z,53.63
2023-05-18T21:02:07.717Z,53.78
2023-05-18T21:04:38.176Z,53.63
2023-05-18T21:07:08.987Z,53.83
2023-05-18T21:09:39.254Z,53.77
2023-05-18T21:12:10.102Z,53.57
2023-05-18T21:14:40.394Z,53.45
2023-05-18T21:17:10.843Z,53.51
2023-05-18T21:19:41.350Z,53.48
2023-05-18T21:22:14.005Z,53.59
2023-05-18T21:24:44.318Z,53.33
2023-05-18T21:27:14.961Z,53.52
2023-05-18T21:29:45.277Z,53.44
2023-05-18T21:32:16.381Z,53.22
2023-05-18T21:34:46.723Z,53.58
2023-05-18T21:37:18.780Z,53.29
2023-05-18T21:39:52.134Z,53.26
2023-05-18T21:42:22.751Z,53.22
2023-05-18T21:44:53.080Z,52.78
2023-05-18T21:47:23.585Z,53.00
2023-05-18T21:49:53.866Z,52.95
2023-05-18T21:52:24.220Z,53.01
2023-05-18T21:54:54.469Z,52.76
2023-05-18T21:57:25.197Z,52.97
2023-05-18T21:59:55.560Z,52.86
2023-05-18T22:02:25.886Z,52.42
2023-05-18T22:04:56.640Z,52.76
2023-05-18T22:07:26.787Z,52.59
2023-05-18T22:09:57.370Z,52.57
2023-05-18T22:12:27.948Z,52.44
2023-05-18T22:14:58.825Z,52.48
2023-05-18T22:17:29.236Z,52.58
2023-05-18T22:20:00.543Z,52.33
2023-05-18T22:22:30.987Z,52.37
2023-05-18T22:25:01.373Z,52.95
2023-05-18T22:27:32.590Z,53.35
2023-05-18T22:30:03.569Z,53.02
2023-05-18T22:32:34.595Z,53.24
2023-05-18T22:35:05.828Z,53.34
2023-05-18T22:37:36.060Z,53.23
2023-05-18T22:40:08.689Z,53.06
2023-05-18T22:42:40.031Z,53.19
2023-05-18T22:45:11.731Z,53.13
2023-05-18T22:47:42.226Z,53.04
2023-05-18T22:50:13.110Z,52.79
2023-05-18T22:52:43.888Z,53.52
2023-05-18T22:56:33.567Z,53.17
2023-05-18T22:59:03.965Z,52.94
2023-05-18T23:01:34.354Z,53.32
2023-05-18T23:04:05.663Z,53.39
2023-05-18T23:06:35.645Z,53.47
2023-05-18T23:09:05.896Z,53.57
2023-05-18T23:11:37.384Z,53.43
2023-05-18T23:14:07.603Z,53.31
2023-05-18T23:16:38.706Z,53.52
2023-05-18T23:19:11.956Z,53.44
2023-05-18T23:21:45.512Z,53.41
2023-05-18T23:24:17.835Z,53.44
2023-05-18T23:26:48.589Z,53.58
2023-05-18T23:29:19.468Z,53.47
2023-05-18T23:31:50.370Z,53.40
2023-05-18T23:34:21.124Z,53.50
2023-05-18T23:36:56.376Z,53.37
2023-05-18T23:39:29.394Z,53.30
2023-05-18T23:42:03.794Z,53.42
2023-05-18T23:44:34.594Z,53.31
2023-05-18T23:47:06.630Z,53.39
2023-05-18T23:49:38.000Z,53.36
2023-05-18T23:52:10.350Z,53.43
2023-05-18T23:54:41.126Z,53.35
2023-05-18T23:57:13.390Z,53.48
2023-05-18T23:59:45.119Z,53.35
